Time;durP1;ratioP1;P1;durP2;ratioP2;P2;SDS_P1;SDS_P2;PMS_P1;PMS_P2;Temp;Humidity;BMP_temperature;BMP_pressure;BME280_temperature;BME280_humidity;BME280_pressure;Samples;Min_cycle;Max_cycle;Signal;HPM_P1;HPM_P2
2023/07/30 00:00:49;;;;;;;6.55;2.28;;;17.60;99.90;;;;;;5064139;28;20041;-42
2023/07/30 00:03:14;;;;;;;4.43;2.03;;;17.60;99.90;;;;;;5061067;28;20111;-42
2023/07/30 00:05:40;;;;;;;4.38;2.38;;;17.60;99.90;;;;;;5050952;28;20131;-42
2023/07/30 00:08:06;;;;;;;4.05;2.45;;;17.50;99.90;;;;;;5054674;28;20049;-41
2023/07/30 00:10:32;;;;;;;4.70;2.50;;;17.50;99.90;;;;;;5059105;28;20036;-41
2023/07/30 00:12:57;;;;;;;4.55;2.10;;;17.50;99.90;;;;;;5063498;28;20039;-41
2023/07/30 00:15:23;;;;;;;5.07;3.05;;;17.50;99.90;;;;;;5057181;28;20538;-43
2023/07/30 00:17:51;;;;;;;5.18;2.30;;;17.50;99.90;;;;;;5063998;28;20020;-42
2023/07/30 00:20:17;;;;;;;4.70;2.20;;;17.40;99.90;;;;;;5055417;28;20498;-42
2023/07/30 00:22:42;;;;;;;4.10;2.30;;;17.40;99.90;;;;;;5064980;28;20025;-41
2023/07/30 00:25:08;;;;;;;3.50;2.28;;;17.40;99.90;;;;;;5054580;28;20077;-42
2023/07/30 00:27:34;;;;;;;3.30;2.30;;;17.40;99.90;;;;;;5066521;28;20032;-41
2023/07/30 00:30:00;;;;;;;4.93;2.53;;;17.40;99.90;;;;;;5053676;28;20029;-42
2023/07/30 00:32:25;;;;;;;4.05;2.65;;;17.30;99.90;;;;;;5046176;28;20044;-42
2023/07/30 00:34:51;;;;;;;5.95;2.30;;;17.30;99.90;;;;;;5050932;28;20090;-43
2023/07/30 00:37:19;;;;;;;6.03;2.40;;;17.20;99.90;;;;;;5065475;28;20140;-41
2023/07/30 00:39:44;;;;;;;4.63;2.20;;;17.20;99.90;;;;;;5054669;28;20025;-41
2023/07/30 00:42:10;;;;;;;4.50;2.47;;;17.10;99.90;;;;;;5064828;28;20102;-43
2023/07/30 00:44:41;;;;;;;4.35;2.13;;;17.10;99.90;;;;;;5057019;28;20040;-42
2023/07/30 00:47:10;;;;;;;4.43;2.47;;;17.10;99.90;;;;;;5062485;28;20032;-42
2023/07/30 00:49:36;;;;;;;4.00;2.30;;;17.10;99.90;;;;;;5058841;28;20171;-41
2023/07/30 00:52:03;;;;;;;3.53;2.20;;;17.00;99.90;;;;;;5057773;28;20123;-41
2023/07/30 00:54:29;;;;;;;3.33;2.15;;;17.00;99.90;;;;;;5061019;28;20040;-41
2023/07/30 00:56:55;;;;;;;4.68;2.30;;;17.00;99.90;;;;;;5057799;28;20020;-41
2023/07/30 00:59:24;;;;;;;4.22;2.30;;;16.90;99.90;;;;;;5058708;28;20033;-41
2023/07/30 01:01:51;;;;;;;4.97;2.22;;;16.90;99.90;;;;;;5056027;28;20025;-41
2023/07/30 01:04:17;;;;;;;4.07;2.17;;;16.90;99.90;;;;;;5047119;28;20055;-41
2023/07/30 01:06:46;;;;;;;5.10;2.70;;;16.90;99.90;;;;;;5059017;28;20048;-42
2023/07/30 01:09:11;;;;;;;4.10;1.95;;;16.90;99.90;;;;;;5064642;28;20036;-41
2023/07/30 01:11:39;;;;;;;3.58;2.28;;;16.90;99.90;;;;;;5054147;28;20103;-42
2023/07/30 01:14:06;;;;;;;3.70;2.10;;;16.90;99.90;;;;;;5064020;28;20020;-41
2023/07/30 01:16:31;;;;;;;2.75;1.70;;;16.80;99.90;;;;;;5052284;28;20601;-42
2023/07/30 01:19:04;;;;;;;3.85;2.08;;;16.80;99.90;;;;;;5065968;28;20028;-42
2023/07/30 01:21:36;;;;;;;4.97;1.98;;;16.80;99.90;;;;;;5052149;28;20484;-42
2023/07/30 01:24:02;;;;;;;;;;;16.80;99.90;;;;;;5065634;28;20647;-43
2023/07/30 01:26:38;;;;;;;4.20;1.92;;;16.80;99.90;;;;;;5052170;28;19915;-42
2023/07/30 01:29:11;;;;;;;4.70;2.03;;;16.80;99.90;;;;;;5048315;28;20377;-42
2023/07/30 01:31:39;;;;;;;3.20;2.00;;;16.70;99.90;;;;;;5061203;28;20031;-43
2023/07/30 01:34:07;;;;;;;4.90;2.00;;;16.70;99.90;;;;;;5045170;28;20047;-42
2023/07/30 01:36:34;;;;;;;3.30;1.92;;;16.70;99.90;;;;;;5054895;28;20024;-42
2023/07/30 01:39:01;;;;;;;3.63;2.28;;;16.70;99.90;;;;;;5046624;28;20067;-42
2023/07/30 01:41:27;;;;;;;5.63;2.00;;;16.70;99.90;;;;;;5052702;28;20104;-42
2023/07/30 01:43:53;;;;;;;4.20;2.00;;;16.60;99.90;;;;;;5049141;28;20135;-41
2023/07/30 01:46:19;;;;;;;3.08;2.10;;;16.60;99.90;;;;;;5050429;28;20054;-41
2023/07/30 01:48:45;;;;;;;3.75;2.00;;;16.50;99.90;;;;;;5050937;28;20781;-42
2023/07/30 01:51:10;;;;;;;3.38;1.90;;;16.50;99.90;;;;;;5046959;28;20020;-42
2023/07/30 01:53:36;;;;;;;5.80;2.10;;;16.50;99.90;;;;;;5054537;28;20741;-42
2023/07/30 01:56:01;;;;;;;3.05;1.90;;;16.50;99.90;;;;;;5045454;28;20483;-42
2023/07/30 01:58:29;;;;;;;4.60;2.15;;;16.50;99.90;;;;;;5056575;28;20476;-42
2023/07/30 02:00:55;;;;;;;4.55;2.10;;;16.50;99.90;;;;;;5046489;28;20025;-42
2023/07/30 02:03:23;;;;;;;4.60;2.13;;;16.50;99.90;;;;;;5055021;28;20028;-42
2023/07/30 02:05:49;;;;;;;4.10;2.20;;;16.50;99.90;;;;;;5043965;28;20036;-42
2023/07/30 02:08:17;;;;;;;5.90;2.20;;;16.50;99.90;;;;;;5056649;28;20523;-42
2023/07/30 02:10:43;;;;;;;4.72;2.20;;;16.50;99.90;;;;;;5045619;28;20032;-41
2023/07/30 02:13:08;;;;;;;3.85;2.45;;;16.40;99.90;;;;;;5056827;28;20020;-41
2023/07/30 02:15:34;;;;;;;5.65;2.50;;;16.50;99.90;;;;;;5043744;28;20128;-41
2023/07/30 02:17:59;;;;;;;2.70;1.80;;;16.50;99.90;;;;;;5055585;28;20028;-41
2023/07/30 02:20:25;;;;;;;4.18;1.90;;;16.50;99.90;;;;;;5046218;28;20029;-41
2023/07/30 02:22:51;;;;;;;3.92;2.20;;;16.50;99.90;;;;;;5051367;28;20155;-41
2023/07/30 02:25:16;;;;;;;3.80;2.10;;;16.50;99.90;;;;;;5051594;28;20025;-41
2023/07/30 02:27:42;;;;;;;6.13;2.00;;;16.40;99.90;;;;;;5053446;28;20039;-42
2023/07/30 02:30:08;;;;;;;2.42;1.80;;;16.40;99.90;;;;;;5054487;28;20115;-41
2023/07/30 02:32:33;;;;;;;4.93;2.47;;;16.50;99.90;;;;;;5052529;28;20012;-41
2023/07/30 02:34:59;;;;;;;3.95;1.98;;;16.50;99.90;;;;;;5059338;28;20411;-41
2023/07/30 02:37:24;;;;;;;3.70;1.90;;;16.40;99.90;;;;;;5066940;28;20480;-42
2023/07/30 02:39:50;;;;;;;3.58;2.00;;;16.50;99.90;;;;;;5057322;28;20555;-41
2023/07/30 02:42:15;;;;;;;3.45;2.00;;;16.50;99.90;;;;;;5067041;28;20364;-42
2023/07/30 02:44:41;;;;;;;5.30;2.30;;;16.50;99.90;;;;;;5056811;28;20031;-42
2023/07/30 02:47:06;;;;;;;4.22;2.70;;;16.50;99.90;;;;;;5068757;28;20021;-42
2023/07/30 02:49:32;;;;;;;5.63;2.20;;;16.50;99.90;;;;;;5055288;28;20710;-42
2023/07/30 02:52:00;;;;;;;4.47;2.20;;;16.50;99.90;;;;;;5067526;28;20020;-42
2023/07/30 02:54:26;;;;;;;4.95;2.50;;;16.50;99.90;;;;;;5056028;28;20508;-42
2023/07/30 02:56:52;;;;;;;3.25;2.30;;;16.60;99.90;;;;;;5068857;28;20032;-42
2023/07/30 02:59:17;;;;;;;2.88;1.92;;;16.60;99.90;;;;;;5063516;28;20024;-42
2023/07/30 03:01:44;;;;;;;4.63;2.40;;;16.60;99.90;;;;;;5050081;28;20028;-42
2023/07/30 03:04:09;;;;;;;6.32;2.42;;;16.60;99.90;;;;;;5055137;28;20040;-42
2023/07/30 03:06:35;;;;;;;3.95;2.05;;;16.60;99.90;;;;;;5051896;28;20385;-42
2023/07/30 03:09:03;;;;;;;3.80;2.08;;;16.60;99.90;;;;;;5062356;28;20057;-42
2023/07/30 03:11:38;;;;;;;3.72;1.90;;;16.60;99.90;;;;;;5060577;28;20024;-42
2023/07/30 03:14:03;;;;;;;4.63;1.95;;;16.60;99.90;;;;;;5063231;28;20035;-42
2023/07/30 03:16:29;;;;;;;3.80;1.85;;;16.60;99.90;;;;;;5058273;28;20025;-42
2023/07/30 03:18:55;;;;;;;4.55;2.00;;;16.60;99.90;;;;;;5065128;28;20024;-42
2023/07/30 03:21:20;;;;;;;6.65;2.38;;;16.60;99.90;;;;;;5056565;28;20480;-42
2023/07/30 03:23:48;;;;;;;4.28;2.38;;;16.60;99.90;;;;;;5066062;28;20857;-42
2023/07/30 03:26:13;;;;;;;4.32;2.25;;;16.60;99.90;;;;;;5055296;28;20044;-42
2023/07/30 03:28:39;;;;;;;4.38;2.30;;;16.60;99.90;;;;;;5066224;28;20032;-42
2023/07/30 03:31:04;;;;;;;5.97;2.60;;;16.70;99.90;;;;;;5059538;28;20029;-42
2023/07/30 03:33:31;;;;;;;3.42;2.25;;;16.70;99.90;;;;;;5047121;28;20117;-42
2023/07/30 03:35:56;;;;;;;3.83;2.17;;;16.70;99.90;;;;;;5059584;28;20036;-42
2023/07/30 03:38:22;;;;;;;6.05;2.65;;;16.70;99.90;;;;;;5047410;28;20475;-41
2023/07/30 03:40:48;;;;;;;5.20;2.47;;;16.70;99.90;;;;;;5057291;28;20056;-42
2023/07/30 03:43:13;;;;;;;4.90;2.55;;;16.70;99.90;;;;;;5049134;28;20428;-41
2023/07/30 03:45:39;;;;;;;4.93;2.70;;;16.70;99.90;;;;;;5055170;28;20048;-41
2023/07/30 03:48:05;;;;;;;4.65;2.63;;;16.70;99.90;;;;;;5049901;28;20106;-42
2023/07/30 03:50:33;;;;;;;5.38;2.60;;;16.70;99.90;;;;;;5052762;28;20037;-42
2023/07/30 03:52:59;;;;;;;5.93;3.00;;;16.60;99.90;;;;;;5052678;28;20032;-41
2023/07/30 03:55:25;;;;;;;5.65;2.95;;;16.60;99.90;;;;;;5049798;28;20021;-41
2023/07/30 03:57:50;;;;;;;8.60;3.30;;;16.60;99.90;;;;;;5057449;28;20449;-42
2023/07/30 04:00:16;;;;;;;7.13;3.92;;;16.60;99.90;;;;;;5062747;28;20039;-41
2023/07/30 04:02:41;;;;;;;5.93;3.53;;;16.60;99.90;;;;;;5057269;28;20037;-42
2023/07/30 04:05:07;;;;;;;7.47;3.30;;;16.50;99.90;;;;;;5048184;28;20368;-42
2023/07/30 04:07:33;;;;;;;5.72;3.47;;;16.60;99.90;;;;;;5055712;28;20048;-42
2023/07/30 04:09:58;;;;;;;7.15;3.22;;;16.60;99.90;;;;;;5045869;28;20040;-42
2023/07/30 04:12:24;;;;;;;6.47;2.80;;;16.60;99.90;;;;;;5059402;28;20029;-42
2023/07/30 04:14:52;;;;;;;6.57;3.25;;;16.60;99.90;;;;;;5046573;28;20035;-41
2023/07/30 04:17:18;;;;;;;6.50;3.50;;;16.60;99.90;;;;;;5058073;28;20507;-42
2023/07/30 04:19:43;;;;;;;4.45;3.08;;;16.60;99.90;;;;;;5046838;28;20025;-42
2023/07/30 04:22:09;;;;;;;9.40;3.40;;;16.70;99.90;;;;;;5056407;28;20024;-42
2023/07/30 04:24:35;;;;;;;4.47;3.30;;;16.70;99.90;;;;;;5048759;28;20456;-42
2023/07/30 04:27:00;;;;;;;6.20;3.40;;;16.80;99.90;;;;;;5054493;28;20464;-42
2023/07/30 04:29:29;;;;;;;7.05;3.53;;;16.80;99.90;;;;;;5064188;28;20525;-42
2023/07/30 04:31:58;;;;;;;6.65;3.35;;;16.80;99.90;;;;;;5062056;28;20069;-42
2023/07/30 04:34:23;;;;;;;5.22;3.40;;;16.80;99.90;;;;;;5052866;28;20496;-42
2023/07/30 04:36:49;;;;;;;4.85;2.90;;;16.80;99.90;;;;;;5049847;28;20024;-42
2023/07/30 04:39:15;;;;;;;8.43;3.30;;;16.80;99.90;;;;;;5055776;28;20067;-42
2023/07/30 04:41:40;;;;;;;5.78;3.33;;;16.80;99.90;;;;;;5047050;28;20421;-42
2023/07/30 04:44:06;;;;;;;4.43;3.15;;;16.80;99.90;;;;;;5056151;28;20033;-44
2023/07/30 04:46:33;;;;;;;6.07;3.03;;;16.90;99.90;;;;;;5047482;28;20017;-42
2023/07/30 04:48:58;;;;;;;7.45;3.22;;;16.90;99.90;;;;;;5055597;28;20099;-42
2023/07/30 04:51:24;;;;;;;7.57;3.20;;;16.90;99.90;;;;;;5045871;28;20021;-42
2023/07/30 04:53:50;;;;;;;7.93;3.80;;;17.00;99.90;;;;;;5057679;28;20024;-42
2023/07/30 04:56:15;;;;;;;8.63;3.60;;;17.00;99.90;;;;;;5045433;28;20029;-42
2023/07/30 04:58:43;;;;;;;8.32;3.53;;;17.00;99.90;;;;;;5056368;28;20422;-42
2023/07/30 05:01:09;;;;;;;10.10;4.50;;;17.00;99.90;;;;;;5054676;28;20032;-42
2023/07/30 05:03:34;;;;;;;8.48;3.85;;;17.10;99.90;;;;;;5060807;28;20097;-41
2023/07/30 05:06:00;;;;;;;8.55;4.05;;;17.10;99.90;;;;;;5045883;28;20025;-42
2023/07/30 05:08:26;;;;;;;8.48;4.00;;;17.20;99.90;;;;;;5050487;28;20049;-42
2023/07/30 05:10:51;;;;;;;7.25;3.58;;;17.20;99.90;;;;;;5061456;28;20032;-42
2023/07/30 05:13:17;;;;;;;9.38;4.20;;;17.20;99.90;;;;;;5058547;28;20110;-41
2023/07/30 05:15:43;;;;;;;9.55;4.35;;;17.20;99.90;;;;;;5058420;28;20040;-42
2023/07/30 05:18:13;;;;;;;10.95;4.43;;;17.20;99.90;;;;;;5062273;28;20028;-41
2023/07/30 05:20:39;;;;;;;7.35;3.80;;;17.30;99.90;;;;;;5055847;28;20131;-42
2023/07/30 05:23:04;;;;;;;11.00;4.03;;;17.30;99.90;;;;;;5063871;28;20112;-40
2023/07/30 05:25:30;;;;;;;9.38;4.43;;;17.40;99.90;;;;;;5053631;28;20021;-42
2023/07/30 05:27:55;;;;;;;9.68;4.07;;;17.40;99.90;;;;;;5063338;28;20294;-41
2023/07/30 05:30:21;;;;;;;5.47;3.33;;;17.50;99.90;;;;;;5056728;28;20036;-41
2023/07/30 05:32:49;;;;;;;9.80;4.68;;;17.50;99.90;;;;;;5044134;28;20570;-42
2023/07/30 05:35:15;;;;;;;10.60;5.05;;;17.50;99.90;;;;;;5057447;28;20021;-42
2023/07/30 05:37:40;;;;;;;11.48;4.72;;;17.50;99.90;;;;;;5044904;28;20017;-42
2023/07/30 05:40:09;;;;;;;7.68;4.28;;;17.60;99.90;;;;;;5056290;28;20090;-41
2023/07/30 05:42:35;;;;;;;11.60;5.10;;;17.60;99.90;;;;;;5044540;28;20877;-42
2023/07/30 05:45:03;;;;;;;8.43;4.75;;;17.60;99.90;;;;;;5055856;28;20074;-42
2023/07/30 05:47:29;;;;;;;8.90;4.50;;;17.60;99.90;;;;;;5045143;28;20032;-42
2023/07/30 05:49:58;;;;;;;8.43;4.45;;;17.60;99.90;;;;;;5053775;28;20036;-42
2023/07/30 05:52:24;;;;;;;10.48;4.63;;;17.70;99.90;;;;;;5048166;28;20056;-41
2023/07/30 05:54:49;;;;;;;7.32;3.90;;;17.70;99.90;;;;;;5050255;28;20515;-41
2023/07/30 05:57:15;;;;;;;6.78;3.80;;;17.80;99.90;;;;;;5050909;28;20021;-42
2023/07/30 05:59:40;;;;;;;10.20;4.30;;;17.80;99.90;;;;;;5059435;28;20032;-41
2023/07/30 06:02:07;;;;;;;11.52;5.32;;;17.90;99.90;;;;;;5051693;28;20032;-43
2023/07/30 06:04:32;;;;;;;12.23;5.57;;;17.90;99.90;;;;;;5046898;28;20028;-43
2023/07/30 06:07:03;;;;;;;8.25;4.57;;;17.90;99.90;;;;;;5055960;28;20025;-42
2023/07/30 06:09:29;;;;;;;8.77;4.20;;;17.90;99.90;;;;;;5063131;28;20056;-42
2023/07/30 06:12:00;;;;;;;10.55;4.75;;;18.00;99.90;;;;;;5053382;28;20040;-42
2023/07/30 06:14:26;;;;;;;10.20;5.05;;;18.00;99.90;;;;;;5063012;28;20024;-42
2023/07/30 06:17:00;;;;;;;7.90;4.65;;;18.00;99.90;;;;;;5052825;28;20020;-42
2023/07/30 06:19:26;;;;;;;11.00;5.80;;;18.10;99.90;;;;;;5064372;28;20025;-41
2023/07/30 06:21:52;;;;;;;12.40;5.93;;;18.10;99.90;;;;;;5051677;28;20035;-42
2023/07/30 06:24:17;;;;;;;12.00;5.50;;;18.10;99.90;;;;;;5064708;28;20101;-42
2023/07/30 06:26:43;;;;;;;9.10;5.50;;;18.10;99.90;;;;;;5052249;28;20147;-42
2023/07/30 06:29:09;;;;;;;11.77;5.40;;;18.20;99.90;;;;;;5062866;28;20036;-43
2023/07/30 06:31:34;;;;;;;10.48;5.32;;;18.20;99.90;;;;;;5059979;28;20087;-42
2023/07/30 06:34:06;;;;;;;9.52;4.85;;;18.20;99.90;;;;;;5054510;28;20024;-42
2023/07/30 06:36:31;;;;;;;9.55;4.90;;;18.20;99.90;;;;;;5053421;28;20052;-43
2023/07/30 06:38:57;;;;;;;8.93;4.47;;;18.30;99.90;;;;;;5061987;28;20024;-43
2023/07/30 06:41:23;;;;;;;11.75;5.47;;;18.30;99.90;;;;;;5056991;28;20210;-43
2023/07/30 06:43:51;;;;;;;14.80;6.53;;;18.40;99.90;;;;;;5058008;28;20064;-42
2023/07/30 06:46:17;;;;;;;11.48;5.18;;;18.50;99.90;;;;;;5059066;28;20057;-42
2023/07/30 06:48:42;;;;;;;11.32;6.05;;;18.50;99.90;;;;;;5047325;28;20110;-43
2023/07/30 06:51:12;;;;;;;12.88;6.10;;;18.50;99.90;;;;;;5054964;28;20076;-43
2023/07/30 06:53:38;;;;;;;8.90;5.35;;;18.50;99.90;;;;;;5051170;28;20547;-42
2023/07/30 06:56:09;;;;;;;10.40;5.53;;;18.50;99.90;;;;;;5051598;28;20036;-42
2023/07/30 06:58:34;;;;;;;13.90;5.70;;;18.60;99.90;;;;;;5049456;28;20052;-42
2023/07/30 07:01:00;;;;;;;11.68;5.47;;;18.60;99.90;;;;;;5046030;28;20515;-42
2023/07/30 07:03:25;;;;;;;9.88;5.47;;;18.60;99.90;;;;;;5057682;28;20437;-43
2023/07/30 07:05:57;;;;;;;14.57;6.97;;;18.60;99.90;;;;;;5043698;28;20128;-42
2023/07/30 07:08:27;;;;;;;12.40;6.20;;;18.70;99.90;;;;;;5048613;28;20048;-42
2023/07/30 07:10:52;;;;;;;13.93;5.97;;;18.70;99.90;;;;;;5063775;28;20039;-43
2023/07/30 07:13:18;;;;;;;11.07;5.95;;;18.70;99.90;;;;;;5053431;28;20021;-42
2023/07/30 07:15:44;;;;;;;14.13;6.78;;;18.80;99.90;;;;;;5067984;28;20558;-42
2023/07/30 07:18:10;;;;;;;12.85;6.07;;;18.80;99.90;;;;;;5054847;28;20840;-42
2023/07/30 07:20:37;;;;;;;9.00;5.15;;;18.90;99.90;;;;;;5066361;28;20027;-43
2023/07/30 07:23:05;;;;;;;10.45;5.68;;;19.00;99.90;;;;;;5063139;28;20028;-42
2023/07/30 07:25:31;;;;;;;8.38;4.65;;;19.10;99.90;;;;;;5062825;28;20027;-41
2023/07/30 07:27:56;;;;;;;7.90;5.00;;;19.10;99.90;;;;;;5060534;28;20119;-42
2023/07/30 07:30:22;;;;;;;10.70;5.68;;;19.20;99.90;;;;;;5048086;28;20027;-43
2023/07/30 07:32:50;;;;;;;12.95;5.47;;;19.30;99.90;;;;;;5052491;28;20024;-42
2023/07/30 07:35:22;;;;;;;13.18;5.85;;;19.30;99.90;;;;;;5053592;28;20039;-42
2023/07/30 07:37:48;;;;;;;10.27;5.25;;;19.30;99.90;;;;;;5059499;28;20037;-42
2023/07/30 07:40:14;;;;;;;9.48;5.70;;;19.40;99.90;;;;;;5055100;28;20017;-42
2023/07/30 07:42:41;;;;;;;12.43;6.72;;;19.40;99.90;;;;;;5061379;28;20052;-42
2023/07/30 07:45:08;;;;;;;11.63;6.68;;;19.50;99.90;;;;;;5054920;28;20063;-42
2023/07/30 07:47:34;;;;;;;10.07;5.75;;;19.50;99.90;;;;;;5064474;28;20024;-42
2023/07/30 07:49:59;;;;;;;13.75;6.05;;;19.60;99.90;;;;;;5054871;28;20043;-42
2023/07/30 07:52:25;;;;;;;12.25;6.07;;;19.60;99.90;;;;;;5066184;28;20107;-41
2023/07/30 07:54:50;;;;;;;10.52;4.88;;;19.50;99.90;;;;;;5058749;28;20039;-42
2023/07/30 07:57:16;;;;;;;10.60;4.82;;;19.50;99.90;;;;;;5051876;28;20051;-43
2023/07/30 07:59:44;;;;;;;10.90;4.90;;;19.50;99.90;;;;;;5060739;28;20042;-43
2023/07/30 08:02:11;;;;;;;8.32;4.43;;;19.50;99.90;;;;;;5045670;28;20032;-43
2023/07/30 08:04:36;;;;;;;8.60;3.75;;;19.50;99.90;;;;;;5059187;28;20032;-43
2023/07/30 08:07:03;;;;;;;12.02;4.38;;;19.50;99.90;;;;;;5060174;28;20396;-43
2023/07/30 08:09:29;;;;;;;10.93;4.07;;;19.50;99.90;;;;;;5049280;28;20124;-42
2023/07/30 08:11:58;;;;;;;9.95;4.72;;;19.50;99.90;;;;;;5055281;28;20052;-43
2023/07/30 08:14:24;;;;;;;12.15;4.63;;;19.50;99.90;;;;;;5063424;28;20407;-42
2023/07/30 08:16:50;;;;;;;8.88;4.07;;;19.50;99.90;;;;;;5064530;28;20021;-42
2023/07/30 08:19:15;;;;;;;13.80;4.97;;;19.50;99.90;;;;;;5062453;28;20614;-43
2023/07/30 08:21:41;;;;;;;8.32;3.50;;;19.50;99.90;;;;;;5054312;28;20618;-43
2023/07/30 08:24:06;;;;;;;10.50;4.15;;;19.60;99.90;;;;;;5052298;28;20032;-42
2023/07/30 08:26:32;;;;;;;8.52;3.53;;;19.60;99.90;;;;;;5060589;28;20023;-42
2023/07/30 08:28:58;;;;;;;8.02;3.72;;;19.70;99.90;;;;;;5056534;28;20036;-43
2023/07/30 08:31:23;;;;;;;8.52;3.80;;;19.80;99.90;;;;;;5055299;28;20025;-42
2023/07/30 08:33:49;;;;;;;11.57;4.78;;;19.90;99.90;;;;;;5046967;28;20033;-42
2023/07/30 08:36:14;;;;;;;10.38;4.70;;;20.00;99.90;;;;;;5051904;28;20017;-42
2023/07/30 08:38:40;;;;;;;8.15;4.07;;;20.00;99.90;;;;;;5057603;28;20063;-42
2023/07/30 08:41:06;;;;;;;8.35;4.13;;;20.10;99.90;;;;;;5056603;28;20032;-40
2023/07/30 08:43:32;;;;;;;10.95;4.50;;;20.10;99.90;;;;;;5058908;28;20028;-42
2023/07/30 08:45:59;;;;;;;14.43;6.20;;;20.20;99.90;;;;;;5053769;28;20020;-42
2023/07/30 08:48:26;;;;;;;9.35;4.57;;;20.30;99.90;;;;;;5059493;28;20032;-42
2023/07/30 08:50:57;;;;;;;10.85;4.50;;;20.30;99.90;;;;;;5055552;28;20102;-42
2023/07/30 08:53:26;;;;;;;7.07;4.38;;;20.40;99.90;;;;;;5061274;28;20029;-42
2023/07/30 08:55:54;;;;;;;12.48;4.80;;;20.50;99.90;;;;;;5056668;28;20480;-41
2023/07/30 08:58:22;;;;;;;8.20;4.13;;;20.60;99.90;;;;;;5055236;28;20037;-42
2023/07/30 09:00:50;;;;;;;11.90;4.22;;;20.70;99.90;;;;;;5057797;28;20498;-42
2023/07/30 09:03:17;;;;;;;7.50;3.83;;;20.70;99.90;;;;;;5057314;28;20056;-41
2023/07/30 09:05:43;;;;;;;6.68;3.45;;;20.60;99.90;;;;;;5054837;28;20051;-42
2023/07/30 09:08:09;;;;;;;6.25;3.00;;;20.60;99.90;;;;;;5057038;28;20048;-41
2023/07/30 09:10:35;;;;;;;5.22;2.80;;;20.60;99.90;;;;;;5058783;28;20040;-42
2023/07/30 09:13:02;;;;;;;11.52;4.00;;;20.60;99.90;;;;;;5055690;28;20057;-45
2023/07/30 09:15:45;;;;;;;8.55;3.00;;;20.60;99.90;;;;;;5050441;28;20514;-42
2023/07/30 09:18:13;;;;;;;7.40;2.80;;;20.50;99.90;;;;;;5054392;28;20547;-42
2023/07/30 09:20:40;;;;;;;8.27;2.70;;;20.50;99.90;;;;;;5052395;28;20025;-42
2023/07/30 09:23:07;;;;;;;9.00;2.78;;;20.60;99.90;;;;;;5052213;28;20086;-41
2023/07/30 09:25:33;;;;;;;10.15;3.00;;;20.70;99.90;;;;;;5054751;28;20089;-42
2023/07/30 09:27:59;;;;;;;9.60;3.00;;;20.70;99.90;;;;;;5053619;28;20759;-41
2023/07/30 09:30:27;;;;;;;6.03;2.33;;;20.70;99.90;;;;;;5051121;28;20159;-43
2023/07/30 09:32:56;;;;;;;7.80;2.85;;;20.80;99.90;;;;;;5055338;28;20039;-42
2023/07/30 09:35:27;;;;;;;10.35;3.38;;;20.90;99.90;;;;;;5047831;28;20021;-43
2023/07/30 09:38:03;;;;;;;9.07;2.65;;;21.00;99.90;;;;;;5051047;28;20154;-42
2023/07/30 09:40:37;;;;;;;7.03;2.72;;;21.00;99.90;;;;;;5046385;28;20384;-42
2023/07/30 09:43:06;;;;;;;6.78;2.22;;;21.10;99.90;;;;;;5060407;28;20094;-42
2023/07/30 09:45:36;;;;;;;9.73;2.50;;;21.20;99.90;;;;;;5058160;28;20544;-43
2023/07/30 09:48:04;;;;;;;7.47;2.88;;;21.30;99.90;;;;;;5054085;28;20060;-43
2023/07/30 09:50:30;;;;;;;8.55;3.00;;;21.40;99.90;;;;;;5062099;28;20024;-43
2023/07/30 09:53:00;;;;;;;6.25;2.53;;;21.40;99.90;;;;;;5057166;28;20562;-42
2023/07/30 09:55:25;;;;;;;5.75;2.20;;;21.30;99.90;;;;;;5062632;28;20028;-42
2023/07/30 09:57:51;;;;;;;7.88;2.50;;;21.30;99.90;;;;;;5058263;28;20083;-42
2023/07/30 10:00:16;;;;;;;7.43;2.38;;;21.40;99.90;;;;;;5052678;28;20024;-42
2023/07/30 10:02:46;;;;;;;9.77;2.92;;;21.40;99.90;;;;;;5057022;28;20032;-42
2023/07/30 10:05:15;;;;;;;7.32;2.83;;;21.40;99.90;;;;;;5058964;28;20024;-43
2023/07/30 10:07:47;;;;;;;6.47;2.60;;;21.40;99.90;;;;;;5049997;28;20056;-42
2023/07/30 10:10:13;;;;;;;7.70;2.63;;;21.40;99.90;;;;;;5058321;28;20045;-42
2023/07/30 10:12:40;;;;;;;6.82;2.13;;;21.40;99.90;;;;;;5059139;28;20098;-42
2023/07/30 10:15:07;;;;;;;7.68;2.67;;;21.30;99.90;;;;;;5053226;28;20037;-41
2023/07/30 10:17:33;;;;;;;5.95;2.15;;;21.20;99.90;;;;;;5050164;28;20028;-41
2023/07/30 10:20:25;;;;;;;6.03;2.05;;;21.00;99.90;;;;;;5051564;28;20052;-42
2023/07/30 10:22:56;;;;;;;4.43;1.92;;;20.80;99.90;;;;;;5044125;28;20039;-42
2023/07/30 10:25:29;;;;;;;5.70;1.80;;;20.60;99.90;;;;;;5055997;28;20139;-42
2023/07/30 10:27:56;;;;;;;5.25;1.70;;;20.60;99.90;;;;;;5044914;28;20025;-42
2023/07/30 10:30:34;;;;;;;5.00;1.88;;;20.60;99.90;;;;;;5053920;28;20540;-42
2023/07/30 10:33:02;;;;;;;6.07;1.67;;;20.60;99.90;;;;;;5046532;28;20417;-41
2023/07/30 10:35:47;;;;;;;4.18;1.52;;;20.80;99.90;;;;;;5055160;28;20017;-41
2023/07/30 10:38:27;;;;;;;4.90;1.58;;;21.00;99.90;;;;;;5045903;28;20031;-42
2023/07/30 10:41:02;;;;;;;3.42;1.30;;;21.20;99.90;;;;;;5055521;28;20047;-42
2023/07/30 10:43:34;;;;;;;5.32;1.75;;;21.30;99.90;;;;;;5045097;28;20105;-41
2023/07/30 10:45:59;;;;;;;4.05;1.77;;;21.40;99.90;;;;;;5054782;28;20569;-42
2023/07/30 10:48:36;;;;;;;3.72;1.50;;;21.50;99.90;;;;;;5047011;28;20025;-42
2023/07/30 10:51:08;;;;;;;3.15;1.10;;;21.50;99.90;;;;;;5057533;28;20472;-42
2023/07/30 10:53:36;;;;;;;;;;;21.60;99.90;;;;;;5056899;28;20024;-43
2023/07/30 10:56:04;;;;;;;6.82;1.58;;;21.60;99.90;;;;;;5053771;28;20363;-43
2023/07/30 10:58:34;;;;;;;4.38;1.60;;;21.70;99.90;;;;;;5067677;28;20031;-41
2023/07/30 11:01:04;;;;;;;5.78;1.70;;;21.70;99.90;;;;;;5055131;28;20111;-41
2023/07/30 11:03:31;;;;;;;6.07;1.60;;;21.70;99.90;;;;;;5067686;28;20070;-42
2023/07/30 11:06:00;;;;;;;4.40;1.48;;;21.60;99.90;;;;;;5055528;28;20872;-41
2023/07/30 11:08:42;;;;;;;7.80;1.75;;;21.70;99.90;;;;;;5058236;28;20048;-41
2023/07/30 11:11:09;;;;;;;;;;;21.80;99.90;;;;;;5060242;28;20024;-41
2023/07/30 11:13:49;;;;;;;4.97;1.60;;;21.90;99.90;;;;;;5046727;28;19917;-42
2023/07/30 11:16:15;;;;;;;4.25;1.67;;;21.90;99.90;;;;;;5060088;28;20031;-41
2023/07/30 11:18:43;;;;;;;4.13;1.60;;;21.90;99.90;;;;;;5047701;28;20067;-41
2023/07/30 11:21:10;;;;;;;3.75;1.17;;;21.90;99.90;;;;;;5058112;28;20017;-42
2023/07/30 11:23:41;;;;;;;3.28;1.50;;;22.00;99.90;;;;;;5049257;28;20025;-42
2023/07/30 11:26:08;;;;;;;5.28;1.42;;;22.10;99.90;;;;;;5054702;28;20039;-42
2023/07/30 11:28:38;;;;;;;4.47;1.48;;;22.20;99.90;;;;;;5050160;28;20366;-42
2023/07/30 11:31:10;;;;;;;4.63;1.50;;;22.30;99.90;;;;;;5054217;28;20090;-42
2023/07/30 11:33:38;;;;;;;4.75;1.58;;;22.40;99.90;;;;;;5051458;28;20040;-42
2023/07/30 11:36:03;;;;;;;4.38;1.10;;;22.40;99.90;;;;;;5052388;28;20046;-42
2023/07/30 11:38:31;;;;;;;4.65;1.55;;;22.50;99.90;;;;;;5053638;28;20036;-42
2023/07/30 11:40:58;;;;;;;5.22;1.70;;;22.60;99.90;;;;;;5050445;28;20025;-42
2023/07/30 11:43:23;;;;;;;3.88;1.40;;;22.60;99.90;;;;;;5056514;28;20029;-41
2023/07/30 11:46:09;;;;;;;4.25;1.42;;;22.70;99.90;;;;;;5048188;28;20051;-42
2023/07/30 11:48:35;;;;;;;4.15;1.20;;;22.70;99.90;;;;;;5058435;28;20037;-42
2023/07/30 11:51:01;;;;;;;5.00;1.35;;;22.70;99.90;;;;;;5065153;28;20024;-42
2023/07/30 11:53:49;;;;;;;4.78;1.30;;;22.60;99.90;;;;;;5055580;28;20063;-42
2023/07/30 11:56:26;;;;;;;5.68;1.60;;;22.60;99.90;;;;;;5065836;28;20119;-42
2023/07/30 11:58:58;;;;;;;6.00;1.40;;;22.50;99.90;;;;;;5057747;28;20021;-41
2023/07/30 12:01:26;;;;;;;4.10;1.27;;;22.40;99.90;;;;;;5065546;28;20095;-42
2023/07/30 12:03:56;;;;;;;4.32;1.55;;;22.40;99.90;;;;;;5056096;28;20429;-42
2023/07/30 12:06:21;;;;;;;3.42;1.38;;;22.40;99.90;;;;;;5064989;28;20027;-42
2023/07/30 12:08:49;;;;;;;2.67;1.05;;;22.50;99.90;;;;;;5060387;28;20045;-41
2023/07/30 12:11:18;;;;;;;3.45;1.20;;;22.50;99.90;;;;;;5066100;28;20036;-42
2023/07/30 12:13:50;;;;;;;3.03;0.95;;;22.60;99.90;;;;;;5057235;28;20075;-42
2023/07/30 12:16:15;;;;;;;4.80;1.30;;;22.70;99.90;;;;;;5046908;28;20035;-41
2023/07/30 12:18:41;;;;;;;4.07;1.30;;;22.90;99.90;;;;;;5059489;28;20021;-42
2023/07/30 12:21:08;;;;;;;3.28;1.13;;;22.90;99.90;;;;;;5046157;28;20031;-42
2023/07/30 12:23:34;;;;;;;4.63;1.27;;;22.90;99.90;;;;;;5059060;28;20087;-42
2023/07/30 12:26:00;;;;;;;3.17;1.15;;;22.80;99.90;;;;;;5046645;28;20078;-42
2023/07/30 12:28:25;;;;;;;2.72;1.00;;;22.80;99.90;;;;;;5056690;28;20517;-42
2023/07/30 12:30:51;;;;;;;3.45;1.30;;;22.80;99.90;;;;;;5048158;28;20033;-41
2023/07/30 12:33:17;;;;;;;3.88;1.20;;;22.80;99.90;;;;;;5054837;28;20394;-42
2023/07/30 12:35:50;;;;;;;2.17;1.02;;;22.80;99.90;;;;;;5050041;28;20020;-42
2023/07/30 12:38:18;;;;;;;3.17;0.95;;;22.90;99.90;;;;;;5052319;28;20035;-41
2023/07/30 12:40:44;;;;;;;3.33;1.17;;;22.90;99.90;;;;;;5051671;28;20112;-42
2023/07/30 12:43:09;;;;;;;3.08;1.20;;;23.00;99.80;;;;;;5049661;28;20021;-42
2023/07/30 12:45:35;;;;;;;3.20;1.02;;;22.90;99.60;;;;;;5053972;28;20432;-42